Time;durP1;ratioP1;P1;durP2;ratioP2;P2;SDS_P1;SDS_P2;PMS_P1;PMS_P2;Temp;Humidity;BMP_temperature;BMP_pressure;BME280_temperature;BME280_humidity;BME280_pressure;Samples;Min_cycle;Max_cycle;Signal;HPM_P1;HPM_P2
2023/01/03 00:00:41;;;;;;;1.85;0.82;;;17.10;93.30;;;;;;5013429;28;20258;-66
2023/01/03 00:03:29;;;;;;;0.98;0.88;;;17.10;93.40;;;;;;5014328;28;20217;-66
2023/01/03 00:06:19;;;;;;;0.80;0.80;;;17.10;93.30;;;;;;5014714;28;20278;-66
2023/01/03 00:09:09;;;;;;;0.93;0.82;;;17.10;93.30;;;;;;5013980;28;20202;-66
2023/01/03 00:15:04;;;;;;;1.13;0.80;;;17.10;93.20;;;;;;5012775;28;20257;-66
2023/01/03 00:17:54;;;;;;;2.63;0.90;;;17.10;93.20;;;;;;5013449;28;20309;-66
2023/01/03 00:20:43;;;;;;;1.27;0.80;;;17.10;93.40;;;;;;5013648;28;20301;-66
2023/01/03 00:23:31;;;;;;;2.38;0.80;;;17.10;93.50;;;;;;5014050;28;20280;-66
2023/01/03 00:26:19;;;;;;;2.90;0.80;;;17.00;93.30;;;;;;5013956;28;20276;-66
2023/01/03 00:29:07;;;;;;;0.80;0.80;;;17.00;93.30;;;;;;5013371;28;20288;-66
2023/01/03 00:31:55;;;;;;;1.20;0.70;;;17.00;93.30;;;;;;5014224;28;20213;-66
2023/01/03 00:34:46;;;;;;;0.80;0.80;;;17.10;93.40;;;;;;5014005;28;20203;-66
2023/01/03 00:37:34;;;;;;;1.10;1.00;;;17.00;93.30;;;;;;5013679;28;20600;-66
2023/01/03 00:40:22;;;;;;;0.90;0.90;;;17.00;93.30;;;;;;5013731;28;20284;-66
2023/01/03 00:43:28;;;;;;;1.45;0.77;;;17.00;93.20;;;;;;5013987;28;20260;-67
2023/01/03 00:46:18;;;;;;;1.35;0.90;;;17.00;93.20;;;;;;5013494;28;20261;-66
2023/01/03 00:49:07;;;;;;;1.25;0.70;;;17.00;93.30;;;;;;5012688;28;20207;-66
2023/01/03 00:51:57;;;;;;;0.70;0.70;;;17.00;93.20;;;;;;5012262;28;20293;-67
2023/01/03 00:54:45;;;;;;;1.50;0.90;;;17.00;93.30;;;;;;5013518;28;20745;-66
2023/01/03 00:57:33;;;;;;;0.80;0.80;;;17.00;93.40;;;;;;5012391;28;20225;-66
2023/01/03 01:00:21;;;;;;;0.75;0.73;;;17.00;93.40;;;;;;5013073;28;20276;-66
2023/01/03 01:03:09;;;;;;;0.90;0.90;;;17.00;93.40;;;;;;5013818;28;20273;-66
2023/01/03 01:05:57;;;;;;;0.90;0.80;;;17.00;93.40;;;;;;5012210;28;20213;-66
2023/01/03 01:08:48;;;;;;;1.20;0.80;;;16.90;93.30;;;;;;5013435;28;20207;-66
2023/01/03 01:11:37;;;;;;;1.25;0.80;;;16.90;93.20;;;;;;5012267;28;20250;-66
2023/01/03 01:14:27;;;;;;;0.90;0.80;;;16.90;93.20;;;;;;5012787;28;20550;-66
2023/01/03 01:17:15;;;;;;;2.13;1.00;;;16.90;93.30;;;;;;5012511;28;20342;-67
2023/01/03 01:20:09;;;;;;;1.45;0.82;;;16.90;93.30;;;;;;5012818;28;20254;-66
2023/01/03 01:22:57;;;;;;;0.80;0.80;;;16.80;93.20;;;;;;5013069;28;20218;-66
2023/01/03 01:25:47;;;;;;;0.70;0.65;;;16.90;93.30;;;;;;5012122;28;20211;-66
2023/01/03 01:28:35;;;;;;;1.30;0.90;;;17.10;93.40;;;;;;5012967;28;20257;-66
2023/01/03 01:31:25;;;;;;;0.80;0.80;;;16.90;93.20;;;;;;5012175;28;20226;-66
2023/01/03 01:34:14;;;;;;;0.88;0.88;;;16.90;93.20;;;;;;5011154;28;20695;-66
2023/01/03 01:37:02;;;;;;;0.70;0.70;;;16.90;93.10;;;;;;5019397;28;20239;-66
2023/01/03 01:39:50;;;;;;;0.82;0.82;;;16.90;93.20;;;;;;5026520;28;20278;-66
2023/01/03 01:45:46;;;;;;;0.82;0.80;;;16.90;93.20;;;;;;5019934;28;20258;-66
2023/01/03 01:48:34;;;;;;;1.40;0.98;;;16.80;93.20;;;;;;5019212;28;20202;-66
2023/01/03 01:51:24;;;;;;;1.98;0.82;;;16.80;92.90;;;;;;5016777;28;20310;-66
2023/01/03 01:54:12;;;;;;;1.00;0.90;;;16.80;93.10;;;;;;5015060;28;20333;-66
2023/01/03 01:57:00;;;;;;;1.17;0.90;;;16.80;93.10;;;;;;5013538;28;20222;-66
2023/01/03 01:59:50;;;;;;;1.45;0.98;;;16.80;93.20;;;;;;5013088;28;20584;-66
2023/01/03 02:02:38;;;;;;;0.85;0.85;;;16.80;93.20;;;;;;5012202;28;20206;-66
2023/01/03 02:05:28;;;;;;;1.00;0.77;;;16.70;93.10;;;;;;5011065;28;20210;-66
2023/01/03 02:08:17;;;;;;;1.35;1.00;;;16.80;93.20;;;;;;5012580;28;20337;-67
2023/01/03 02:11:20;;;;;;;1.60;0.93;;;16.80;93.10;;;;;;5011722;28;20694;-66
2023/01/03 02:14:31;;;;;;;1.20;1.10;;;16.80;93.10;;;;;;5012498;28;20213;-66
2023/01/03 02:17:30;;;;;;;1.20;1.00;;;16.70;93.00;;;;;;5011557;28;20214;-66
2023/01/03 02:20:32;;;;;;;0.70;0.70;;;16.70;93.20;;;;;;5021607;28;20242;-67
2023/01/03 02:23:49;;;;;;;0.88;0.88;;;16.70;92.90;;;;;;5024939;28;20257;-66
2023/01/03 02:26:48;;;;;;;0.75;0.75;;;16.70;92.60;;;;;;5025354;28;20211;-66
2023/01/03 02:30:06;;;;;;;1.27;0.90;;;16.70;92.60;;;;;;5011678;28;20248;-66
2023/01/03 02:33:06;;;;;;;1.23;1.00;;;16.70;92.60;;;;;;5013064;28;20292;-66
2023/01/03 02:36:03;;;;;;;1.13;0.90;;;16.70;92.50;;;;;;5016324;28;20285;-66
2023/01/03 02:38:58;;;;;;;1.25;0.90;;;16.70;92.40;;;;;;5015044;28;20227;-66
2023/01/03 02:42:56;;;;;;;0.75;0.75;;;16.60;92.50;;;;;;5016290;28;20304;-66
2023/01/03 02:45:07;;;;;;;0.95;0.90;;;16.20;92.20;;;;;;5015212;28;20206;-66
2023/01/03 02:48:01;;;;;;;1.75;0.80;;;16.60;92.40;;;;;;5036423;28;20281;-67
2023/01/03 02:50:54;;;;;;;0.82;0.82;;;16.60;92.30;;;;;;5035056;28;20639;-66
2023/01/03 02:53:45;;;;;;;0.88;0.80;;;16.60;92.30;;;;;;5035595;28;20666;-66
2023/01/03 02:56:38;;;;;;;1.00;1.00;;;16.60;92.20;;;;;;5035260;28;20263;-66
2023/01/03 02:59:33;;;;;;;1.30;0.90;;;16.70;99.90;;;;;;5035437;28;20356;-66
2023/01/03 03:02:27;;;;;;;0.80;0.80;;;16.60;92.40;;;;;;5042503;28;20735;-66
2023/01/03 03:05:23;;;;;;;1.40;0.88;;;16.60;92.40;;;;;;5035591;28;20559;-66
2023/01/03 03:08:11;;;;;;;0.88;0.73;;;16.60;92.40;;;;;;5034851;28;20229;-66
2023/01/03 03:14:10;;;;;;;1.90;0.95;;;16.50;92.20;;;;;;5034923;28;20193;-66
2023/01/03 03:17:03;;;;;;;2.15;0.80;;;16.50;92.30;;;;;;5035136;28;20271;-66
2023/01/03 03:26:16;;;;;;;1.30;0.90;;;16.50;92.10;;;;;;5035477;28;20284;-66
2023/01/03 03:29:07;;;;;;;0.90;0.90;;;16.50;91.90;;;;;;5035351;28;20217;-66
2023/01/03 03:31:56;;;;;;;0.80;0.80;;;16.40;91.60;;;;;;5035051;28;20304;-66
2023/01/03 03:34:46;;;;;;;1.42;0.82;;;16.40;91.70;;;;;;5034615;28;20198;-66
2023/01/03 03:37:37;;;;;;;0.82;0.82;;;16.40;91.70;;;;;;5035771;28;20257;-66
2023/01/03 03:46:55;;;;;;;1.25;0.90;;;16.40;91.70;;;;;;5033420;28;20260;-66
2023/01/03 03:49:45;;;;;;;2.58;0.90;;;16.40;91.70;;;;;;5034671;28;20214;-66
2023/01/03 03:52:35;;;;;;;0.90;0.88;;;16.40;91.60;;;;;;5034802;28;20239;-66
2023/01/03 03:55:26;;;;;;;1.40;0.90;;;16.40;91.80;;;;;;5034287;28;20805;-66
2023/01/03 03:58:19;;;;;;;2.15;0.90;;;16.40;91.70;;;;;;5034373;28;20297;-66
2023/01/03 04:01:10;;;;;;;1.20;0.95;;;16.40;91.80;;;;;;5033736;28;20221;-66
2023/01/03 04:04:03;;;;;;;1.33;0.90;;;16.30;91.80;;;;;;5034146;28;20198;-67
2023/01/03 04:06:52;;;;;;;1.45;0.90;;;16.30;91.60;;;;;;5034109;28;20201;-66
2023/01/03 04:09:40;;;;;;;1.17;1.00;;;16.30;91.80;;;;;;5034569;28;20300;-66
2023/01/03 04:12:28;;;;;;;0.80;0.80;;;16.30;91.80;;;;;;5033824;28;20234;-66
2023/01/03 04:15:18;;;;;;;1.40;1.10;;;16.30;91.80;;;;;;5034134;28;20217;-66
2023/01/03 04:18:06;;;;;;;2.35;1.35;;;16.30;91.70;;;;;;5034551;28;20218;-66
2023/01/03 04:20:54;;;;;;;1.55;0.80;;;16.30;91.80;;;;;;5033205;28;20348;-66
2023/01/03 04:23:42;;;;;;;1.00;0.90;;;16.30;91.90;;;;;;5033873;28;20284;-66
2023/01/03 04:26:30;;;;;;;2.63;0.88;;;16.30;91.70;;;;;;5033655;28;20303;-66
2023/01/03 04:29:18;;;;;;;1.25;0.93;;;16.40;99.90;;;;;;5033561;28;20198;-66
2023/01/03 04:32:08;;;;;;;1.10;0.90;;;16.20;91.90;;;;;;5033845;28;20256;-66
2023/01/03 04:34:57;;;;;;;1.48;1.00;;;16.30;92.10;;;;;;5035204;28;20209;-66
2023/01/03 04:37:45;;;;;;;0.93;0.70;;;16.30;92.10;;;;;;5034039;28;20303;-66
2023/01/03 04:40:34;;;;;;;0.88;0.80;;;16.40;92.20;;;;;;5033247;28;20327;-66
2023/01/03 04:46:28;;;;;;;1.17;0.80;;;16.20;92.10;;;;;;5032749;28;20243;-65
2023/01/03 04:49:18;;;;;;;0.85;0.73;;;16.20;99.90;;;;;;5033421;28;20291;-67
2023/01/03 04:52:06;;;;;;;1.05;0.85;;;16.20;92.20;;;;;;5032164;28;20301;-66
2023/01/03 04:54:54;;;;;;;1.25;0.85;;;16.20;92.20;;;;;;5032407;28;20246;-66
2023/01/03 04:57:42;;;;;;;1.65;0.80;;;16.20;92.10;;;;;;5033271;28;20277;-66
2023/01/03 05:00:30;;;;;;;0.75;0.75;;;16.20;92.10;;;;;;5031984;28;20311;-65
2023/01/03 05:03:18;;;;;;;1.40;1.20;;;18.50;93.20;;;;;;5032568;28;20262;-66
2023/01/03 05:06:16;;;;;;;1.17;0.82;;;16.20;92.10;;;;;;5032750;28;20206;-66
2023/01/03 05:09:04;;;;;;;0.90;0.90;;;16.20;92.10;;;;;;5032574;28;20206;-66
2023/01/03 05:11:53;;;;;;;1.52;1.00;;;16.20;92.10;;;;;;5032761;28;20234;-65
2023/01/03 05:14:41;;;;;;;1.23;1.13;;;16.20;92.10;;;;;;5032106;28;20576;-66
2023/01/03 05:17:29;;;;;;;1.00;1.00;;;16.20;92.10;;;;;;5033549;28;20321;-66
2023/01/03 05:26:30;;;;;;;1.95;0.85;;;16.20;92.10;;;;;;5043443;28;20270;-66
2023/01/03 05:29:20;;;;;;;0.98;0.88;;;16.10;98.90;;;;;;5035225;28;20626;-66
2023/01/03 05:32:08;;;;;;;1.55;0.90;;;16.20;92.00;;;;;;5033387;28;20335;-66
2023/01/03 05:34:56;;;;;;;2.45;1.00;;;16.10;91.90;;;;;;5032991;28;20263;-66
2023/01/03 05:37:44;;;;;;;0.90;0.90;;;16.10;91.90;;;;;;5032495;28;20478;-66
2023/01/03 05:40:34;;;;;;;0.95;0.85;;;16.10;92.00;;;;;;5031653;28;20233;-66
2023/01/03 05:43:28;;;;;;;1.10;1.00;;;16.10;92.00;;;;;;5033208;28;20214;-67
2023/01/03 05:46:16;;;;;;;0.82;0.80;;;16.10;92.00;;;;;;5032166;28;20245;-66
2023/01/03 05:49:04;;;;;;;1.10;0.80;;;16.10;91.90;;;;;;5033601;28;20194;-66
2023/01/03 05:51:52;;;;;;;1.15;0.90;;;16.10;91.60;;;;;;5033506;28;20222;-66
2023/01/03 05:54:40;;;;;;;2.63;0.98;;;16.10;92.00;;;;;;5033184;28;20237;-66
2023/01/03 05:57:30;;;;;;;1.20;1.08;;;16.00;91.80;;;;;;5032009;28;20291;-66
2023/01/03 06:00:22;;;;;;;1.25;0.90;;;16.00;91.90;;;;;;5031567;28;20288;-66
2023/01/03 06:03:10;;;;;;;0.85;0.85;;;16.00;91.90;;;;;;5031219;28;20336;-66
2023/01/03 06:06:02;;;;;;;0.82;0.82;;;16.00;91.80;;;;;;5032008;28;20204;-66
2023/01/03 06:08:51;;;;;;;0.90;0.90;;;16.00;91.70;;;;;;5033856;28;20248;-66
2023/01/03 06:11:40;;;;;;;2.25;1.00;;;16.00;91.90;;;;;;5036022;28;20225;-66
2023/01/03 06:14:29;;;;;;;1.20;0.98;;;16.00;91.80;;;;;;5036258;28;20206;-66
2023/01/03 06:20:24;;;;;;;2.03;0.90;;;16.00;91.90;;;;;;5036007;28;20217;-66
2023/01/03 06:23:12;;;;;;;1.25;1.00;;;16.00;91.70;;;;;;5035210;28;20204;-66
2023/01/03 06:26:02;;;;;;;1.70;1.08;;;15.90;91.80;;;;;;5035241;28;20233;-66
2023/01/03 06:28:51;;;;;;;1.67;1.40;;;16.00;91.80;;;;;;5035654;28;20199;-66
2023/01/03 06:31:40;;;;;;;2.00;1.20;;;15.90;91.70;;;;;;5036111;28;20271;-66
2023/01/03 06:34:29;;;;;;;1.08;0.90;;;15.90;91.80;;;;;;5036116;28;20343;-66
2023/01/03 06:37:17;;;;;;;1.02;0.93;;;16.00;92.00;;;;;;5035694;28;20288;-66
2023/01/03 06:40:07;;;;;;;1.75;1.05;;;15.90;91.80;;;;;;5038818;28;20673;-66
2023/01/03 06:42:55;;;;;;;1.02;0.75;;;15.90;91.90;;;;;;5053224;28;20205;-66
2023/01/03 06:55:13;;;;;;;1.77;1.20;;;15.90;91.90;;;;;;4992356;28;20212;-66
2023/01/03 06:58:01;;;;;;;0.80;0.80;;;15.90;91.90;;;;;;5034506;28;20260;-65
2023/01/03 07:00:49;;;;;;;0.80;0.80;;;15.90;91.80;;;;;;5034134;28;20253;-65
2023/01/03 07:03:37;;;;;;;1.00;0.90;;;15.90;92.00;;;;;;5035054;28;20346;-65
2023/01/03 07:06:26;;;;;;;2.75;1.23;;;15.90;91.70;;;;;;5035346;28;20282;-65
2023/01/03 07:09:15;;;;;;;1.55;1.00;;;15.90;91.90;;;;;;5034256;28;20230;-66
2023/01/03 07:13:57;;;;;;;1.38;0.98;;;15.80;91.60;;;;;;5035275;28;20621;-66
2023/01/03 07:15:11;;;;;;;2.78;1.20;;;15.90;92.00;;;;;;5033467;28;20245;-65
2023/01/03 07:17:59;;;;;;;2.10;1.20;;;15.80;91.90;;;;;;5033537;28;20248;-65
2023/01/03 07:20:47;;;;;;;0.87;0.83;;;15.80;91.60;;;;;;5033173;28;20313;-65
2023/01/03 07:23:37;;;;;;;1.40;1.10;;;15.80;92.00;;;;;;5033730;28;20578;-65
2023/01/03 07:26:25;;;;;;;1.30;1.20;;;15.80;92.00;;;;;;5035103;28;20280;-66
2023/01/03 07:29:13;;;;;;;1.35;1.08;;;15.80;92.20;;;;;;5034037;28;20308;-65
2023/01/03 07:32:01;;;;;;;0.98;0.95;;;15.80;92.00;;;;;;5034096;28;20208;-66
2023/01/03 07:34:49;;;;;;;0.80;0.80;;;15.80;92.00;;;;;;5034330;28;20206;-66
2023/01/03 07:37:38;;;;;;;1.15;1.05;;;15.80;91.90;;;;;;5033690;28;20238;-65
2023/01/03 07:40:27;;;;;;;1.95;1.00;;;15.80;91.80;;;;;;5033041;28;20236;-66
2023/01/03 07:46:23;;;;;;;1.40;0.83;;;15.80;91.90;;;;;;5034435;28;20198;-66
2023/01/03 07:49:11;;;;;;;1.50;1.05;;;15.80;91.90;;;;;;5035232;28;20205;-66
2023/01/03 07:51:59;;;;;;;2.45;1.08;;;15.80;91.80;;;;;;5034611;28;20241;-65
2023/01/03 07:54:47;;;;;;;1.23;1.00;;;15.80;91.80;;;;;;5034683;28;20281;-66
2023/01/03 07:57:37;;;;;;;1.83;1.00;;;15.80;91.80;;;;;;5034509;28;20252;-66
2023/01/03 08:00:25;;;;;;;0.88;0.80;;;15.80;91.90;;;;;;5034322;28;20722;-66
2023/01/03 08:03:14;;;;;;;1.13;1.00;;;15.80;91.90;;;;;;5033706;28;20205;-66
2023/01/03 08:06:03;;;;;;;2.05;1.05;;;15.80;91.90;;;;;;5033309;28;20202;-65
2023/01/03 08:15:01;;;;;;;1.05;1.00;;;15.80;91.90;;;;;;5033026;28;20292;-65
2023/01/03 08:17:49;;;;;;;1.20;1.05;;;15.80;92.00;;;;;;5032911;28;20240;-66
2023/01/03 08:20:37;;;;;;;1.27;1.02;;;15.80;92.10;;;;;;5032989;28;20221;-66
2023/01/03 08:23:26;;;;;;;1.90;1.10;;;15.70;92.10;;;;;;5033808;28;20202;-65
2023/01/03 08:26:16;;;;;;;2.95;1.08;;;15.80;92.00;;;;;;5034242;28;20202;-65
2023/01/03 08:29:04;;;;;;;1.33;1.23;;;15.70;91.90;;;;;;5032592;28;20198;-66
2023/01/03 08:31:56;;;;;;;2.87;1.10;;;15.80;92.10;;;;;;5032306;28;20202;-65
2023/01/03 08:34:47;;;;;;;2.35;1.40;;;15.80;92.00;;;;;;5032568;28;20585;-65
2023/01/03 08:37:35;;;;;;;1.23;1.13;;;15.80;92.10;;;;;;5032279;28;20243;-66
2023/01/03 08:40:23;;;;;;;1.50;1.17;;;15.80;92.10;;;;;;5032058;28;20256;-66
2023/01/03 08:43:13;;;;;;;1.50;1.00;;;15.80;92.10;;;;;;5033624;28;20624;-65
2023/01/03 08:46:03;;;;;;;1.70;1.40;;;15.80;91.90;;;;;;5034838;28;20272;-65
2023/01/03 08:48:52;;;;;;;1.73;1.63;;;15.80;92.10;;;;;;5032272;28;20299;-65
2023/01/03 08:51:40;;;;;;;1.87;1.53;;;15.80;92.10;;;;;;5033422;28;20732;-66
2023/01/03 08:54:28;;;;;;;2.17;1.80;;;15.80;92.00;;;;;;5033255;28;20245;-66
2023/01/03 08:57:16;;;;;;;4.80;2.30;;;15.80;92.00;;;;;;5033417;28;20241;-65
2023/01/03 09:00:06;;;;;;;1.77;1.65;;;15.80;92.00;;;;;;5033249;28;20257;-65
2023/01/03 09:02:54;;;;;;;2.05;1.60;;;15.80;91.90;;;;;;5032705;28;20275;-66
2023/01/03 09:05:44;;;;;;;1.40;1.30;;;15.80;92.00;;;;;;5035772;28;20328;-65
2023/01/03 09:08:32;;;;;;;2.88;1.27;;;15.80;92.00;;;;;;5044920;28;20206;-66
2023/01/03 09:11:20;;;;;;;1.35;1.10;;;15.80;91.90;;;;;;5040688;28;20221;-66
2023/01/03 09:14:08;;;;;;;1.60;1.17;;;15.80;91.90;;;;;;5035894;28;20252;-65
2023/01/03 09:16:57;;;;;;;1.35;1.25;;;15.80;91.90;;;;;;5033118;28;20291;-66
2023/01/03 09:19:45;;;;;;;1.67;1.25;;;15.80;92.00;;;;;;5033426;28;20220;-66
2023/01/03 09:22:34;;;;;;;0.95;0.93;;;15.80;91.80;;;;;;5032730;28;20194;-66
2023/01/03 09:25:22;;;;;;;4.30;1.75;;;15.80;92.10;;;;;;5033196;28;20623;-66
2023/01/03 09:28:11;;;;;;;1.80;1.13;;;15.80;91.80;;;;;;5032361;28;20701;-66
2023/01/03 09:30:59;;;;;;;2.35;1.30;;;15.80;91.80;;;;;;5033120;28;20222;-66
2023/01/03 09:33:47;;;;;;;1.45;1.15;;;15.80;91.70;;;;;;5033684;28;20209;-65
2023/01/03 09:36:37;;;;;;;1.35;1.25;;;15.00;91.30;;;;;;5031952;28;20756;-65
2023/01/03 09:39:26;;;;;;;2.15;1.23;;;15.60;99.90;;;;;;5032412;28;20332;-65
2023/01/03 09:45:29;;;;;;;1.83;1.20;;;15.80;91.60;;;;;;5032126;28;20268;-66
2023/01/03 09:48:20;;;;;;;1.88;1.00;;;15.80;91.70;;;;;;5032717;28;20204;-66
2023/01/03 10:04:17;;;;;;;1.58;1.30;;;15.80;91.90;;;;;;5033295;28;20198;-66
2023/01/03 10:07:14;;;;;;;2.92;1.50;;;15.90;91.80;;;;;;5032047;28;20608;-66
2023/01/03 10:10:14;;;;;;;1.70;1.10;;;15.90;91.70;;;;;;5031758;28;20529;-66
2023/01/03 10:13:13;;;;;;;1.42;1.10;;;15.90;92.00;;;;;;5031669;28;20206;-66
2023/01/03 10:16:15;;;;;;;1.10;1.00;;;15.90;91.70;;;;;;5032086;28;20212;-66
2023/01/03 10:19:27;;;;;;;1.83;1.65;;;15.90;92.00;;;;;;5031549;28;20206;-65
2023/01/03 10:22:18;;;;;;;2.78;1.30;;;15.90;91.90;;;;;;5031208;28;20256;-66
2023/01/03 10:25:12;;;;;;;1.42;1.27;;;15.90;91.50;;;;;;5032351;28;20288;-66
2023/01/03 10:28:09;;;;;;;1.23;1.13;;;15.90;91.90;;;;;;5031540;28;20240;-66
2023/01/03 10:31:17;;;;;;;1.10;1.00;;;15.90;91.80;;;;;;5030809;28;20304;-66
2023/01/03 10:34:06;;;;;;;1.30;1.20;;;15.90;91.80;;;;;;5030920;28;20764;-65
2023/01/03 10:36:55;;;;;;;2.15;1.20;;;15.90;91.60;;;;;;5032121;28;20202;-66
2023/01/03 10:39:43;;;;;;;1.90;1.20;;;15.90;92.00;;;;;;5031340;28;20279;-66
2023/01/03 10:42:34;;;;;;;1.30;1.20;;;15.90;91.70;;;;;;5030795;28;20717;-66
2023/01/03 10:45:23;;;;;;;2.50;1.48;;;15.90;91.80;;;;;;5030220;28;20206;-66
2023/01/03 10:48:14;;;;;;;2.05;1.38;;;15.90;92.00;;;;;;5030980;28;20625;-66
2023/01/03 10:51:05;;;;;;;1.60;1.50;;;15.90;91.90;;;;;;5030035;28;20704;-66
2023/01/03 10:53:57;;;;;;;2.38;1.40;;;15.90;91.70;;;;;;5030000;28;20240;-66
2023/01/03 10:56:45;;;;;;;1.13;1.10;;;15.90;92.00;;;;;;5034500;28;20198;-66
2023/01/03 10:59:36;;;;;;;1.83;1.60;;;15.70;99.90;;;;;;5032778;28;20327;-66
2023/01/03 11:02:25;;;;;;;1.75;1.42;;;15.90;92.00;;;;;;5034003;28;20368;-66
2023/01/03 11:05:17;;;;;;;1.35;1.25;;;15.90;92.10;;;;;;5032818;28;20675;-66
2023/01/03 11:08:13;;;;;;;1.20;1.10;;;15.90;91.90;;;;;;5032261;28;20206;-66
2023/01/03 11:11:02;;;;;;;1.58;1.38;;;15.90;92.00;;;;;;5033483;28;20225;-66
2023/01/03 11:13:50;;;;;;;1.65;1.17;;;15.90;92.20;;;;;;5033349;28;20335;-66
2023/01/03 11:16:38;;;;;;;2.45;1.45;;;15.90;91.90;;;;;;5033174;28;20332;-65
2023/01/03 11:19:30;;;;;;;5.25;1.65;;;15.80;99.90;;;;;;5033035;28;20691;-66
2023/01/03 11:22:31;;;;;;;1.60;1.50;;;15.90;91.90;;;;;;5033750;28;20218;-65
2023/01/03 11:25:39;;;;;;;2.90;1.55;;;15.90;91.60;;;;;;5033720;28;20553;-66
2023/01/03 11:28:51;;;;;;;1.70;1.60;;;15.90;91.70;;;;;;5033230;28;20698;-65
2023/01/03 11:31:50;;;;;;;3.65;1.63;;;15.90;91.60;;;;;;5034247;28;20210;-66
2023/01/03 11:35:03;;;;;;;4.53;2.00;;;15.90;91.60;;;;;;5034917;28;20198;-66
2023/01/03 11:38:25;;;;;;;1.75;1.48;;;15.90;91.50;;;;;;5033560;28;20277;-66
2023/01/03 11:41:37;;;;;;;2.17;1.60;;;15.90;91.30;;;;;;5000256;28;970374;-66
2023/01/03 11:44:49;;;;;;;2.03;1.92;;;15.90;91.30;;;;;;5036194;28;20202;-66
2023/01/03 11:47:46;;;;;;;3.00;1.83;;;15.90;91.30;;;;;;5034037;28;20679;-66
2023/01/03 11:50:49;;;;;;;3.13;1.58;;;15.90;91.20;;;;;;5034796;28;20700;-66
2023/01/03 11:53:42;;;;;;;3.53;1.75;;;15.80;91.00;;;;;;5035155;28;20198;-65
2023/01/03 11:56:36;;;;;;;2.93;1.70;;;15.80;91.30;;;;;;5033567;28;20260;-65
2023/01/03 11:59:45;;;;;;;1.33;1.23;;;15.80;98.10;;;;;;5034793;28;20742;-65
2023/01/03 12:03:01;;;;;;;1.67;1.53;;;15.80;91.20;;;;;;5034536;28;20222;-65
2023/01/03 12:05:58;;;;;;;1.33;1.23;;;15.80;91.20;;;;;;5033233;28;20260;-66
2023/01/03 12:08:59;;;;;;;1.43;1.33;;;15.80;91.40;;;;;;5034688;28;20206;-66
2023/01/03 12:12:13;;;;;;;1.52;1.30;;;15.80;91.30;;;;;;5034921;28;20299;-66
2023/01/03 12:15:12;;;;;;;1.40;1.30;;;15.80;91.40;;;;;;5034692;28;20276;-65
2023/01/03 12:18:05;;;;;;;1.52;1.42;;;15.80;91.20;;;;;;5034477;28;20205;-66
2023/01/03 12:20:59;;;;;;;2.28;1.83;;;15.80;91.40;;;;;;5033353;28;20222;-66
2023/01/03 12:23:52;;;;;;;2.10;1.75;;;15.80;91.60;;;;;;5034043;28;20209;-66
2023/01/03 12:26:42;;;;;;;1.37;1.27;;;15.80;91.50;;;;;;5033522;28;20206;-65
2023/01/03 12:29:38;;;;;;;2.55;1.58;;;16.00;99.90;;;;;;5033320;28;20208;-65
2023/01/03 12:32:33;;;;;;;1.73;1.45;;;15.80;91.50;;;;;;5033542;28;20242;-66
2023/01/03 12:35:29;;;;;;;1.30;1.20;;;15.80;91.40;;;;;;5033698;28;20845;-65
2023/01/03 12:38:23;;;;;;;2.22;1.20;;;15.80;91.20;;;;;;5034816;28;20202;-65
2023/01/03 12:41:21;;;;;;;2.80;1.73;;;15.80;91.00;;;;;;5039857;28;20230;-66
2023/01/03 12:44:15;;;;;;;2.83;1.60;;;15.80;91.40;;;;;;5039954;28;20261;-66
2023/01/03 12:47:05;;;;;;;1.90;1.80;;;15.80;91.60;;;;;;5039710;28;20226;-66
2023/01/03 12:50:01;;;;;;;1.65;1.38;;;15.80;91.80;;;;;;5039892;28;20236;-66
2023/01/03 12:52:57;;;;;;;2.67;1.75;;;15.80;91.90;;;;;;5045209;28;20198;-66
2023/01/03 12:55:58;;;;;;;1.88;1.63;;;15.80;91.30;;;;;;5045011;28;20279;-67
2023/01/03 12:59:00;;;;;;;1.45;1.10;;;15.80;91.40;;;;;;5039470;28;20256;-66
2023/01/03 13:01:52;;;;;;;3.53;1.42;;;15.80;91.20;;;;;;5038422;28;20205;-66
2023/01/03 13:04:42;;;;;;;1.98;1.70;;;15.80;91.50;;;;;;5038605;28;20587;-66
2023/01/03 13:07:33;;;;;;;1.58;1.48;;;15.80;91.10;;;;;;5038543;28;20234;-66
2023/01/03 13:10:33;;;;;;;1.63;1.27;;;15.80;91.50;;;;;;5036867;28;20218;-66
2023/01/03 13:13:22;;;;;;;1.88;1.30;;;15.80;91.20;;;;;;5037113;28;20233;-65
2023/01/03 13:16:41;;;;;;;1.40;1.30;;;15.80;91.50;;;;;;5037483;28;20202;-65
2023/01/03 13:19:50;;;;;;;2.92;1.50;;;15.70;99.90;;;;;;5036836;28;20206;-65
2023/01/03 13:22:48;;;;;;;2.45;1.20;;;15.80;91.40;;;;;;5036542;28;20253;-65
2023/01/03 13:25:40;;;;;;;1.45;1.35;;;15.80;91.50;;;;;;5037636;28;20247;-66
2023/01/03 13:28:35;;;;;;;1.98;1.40;;;15.80;91.20;;;;;;5037162;28;20830;-65
2023/01/03 13:31:39;;;;;;;1.52;1.38;;;15.80;91.40;;;;;;5036314;28;20222;-66
2023/01/03 13:34:34;;;;;;;3.78;2.05;;;15.80;91.20;;;;;;5036851;28;20198;-65
2023/01/03 13:37:24;;;;;;;2.63;1.55;;;15.80;91.60;;;;;;5036080;28;20200;-66
2023/01/03 13:40:32;;;;;;;1.70;1.48;;;15.80;91.10;;;;;;5033693;28;20699;-66
2023/01/03 13:43:44;;;;;;;1.77;1.60;;;15.80;91.80;;;;;;5032891;28;20248;-66
2023/01/03 13:46:33;;;;;;;1.35;1.25;;;15.80;91.50;;;;;;5032791;28;20563;-65
2023/01/03 13:49:24;;;;;;;1.52;1.42;;;15.70;98.30;;;;;;5033019;28;20587;-66
2023/01/03 13:52:36;;;;;;;1.73;1.20;;;15.80;91.30;;;;;;5033583;28;20195;-66
2023/01/03 13:55:35;;;;;;;1.92;1.25;;;15.80;91.70;;;;;;5032614;28;20702;-65
2023/01/03 13:58:31;;;;;;;1.35;1.25;;;15.80;91.60;;;;;;5033594;28;20564;-66
2023/01/03 14:01:34;;;;;;;2.00;1.45;;;15.80;91.50;;;;;;5032014;28;20280;-66
2023/01/03 14:04:46;;;;;;;1.92;1.83;;;15.80;91.80;;;;;;5032332;28;20276;-65
2023/01/03 14:08:00;;;;;;;1.40;1.30;;;15.80;91.50;;;;;;5033202;28;20202;-66
2023/01/03 14:11:03;;;;;;;4.32;1.58;;;16.00;91.70;;;;;;5032839;28;20699;-66
2023/01/03 14:13:54;;;;;;;3.17;1.60;;;15.80;91.70;;;;;;5032085;28;20193;-66
2023/01/03 14:16:48;;;;;;;1.90;1.40;;;15.60;91.40;;;;;;5031721;28;20734;-65
2023/01/03 14:19:37;;;;;;;2.15;1.20;;;15.80;99.90;;;;;;5031499;28;20578;-65
2023/01/03 14:22:35;;;;;;;4.77;1.40;;;15.80;91.80;;;;;;5031361;28;20244;-65
2023/01/03 14:25:34;;;;;;;2.15;1.83;;;15.70;91.70;;;;;;5031666;28;20344;-66
2023/01/03 14:28:24;;;;;;;1.30;1.20;;;15.80;91.60;;;;;;5032488;28;20285;-65
2023/01/03 14:31:18;;;;;;;3.72;1.10;;;15.70;91.80;;;;;;5034308;28;20213;-66
2023/01/03 14:34:21;;;;;;;1.70;1.17;;;15.70;91.80;;;;;;5035228;28;20194;-65
2023/01/03 14:37:13;;;;;;;1.40;1.30;;;15.70;91.60;;;;;;5035436;28;20201;-66
2023/01/03 14:40:04;;;;;;;1.30;1.20;;;15.70;91.50;;;;;;5034640;28;20252;-65
2023/01/03 14:42:52;;;;;;;2.65;1.70;;;15.80;91.70;;;;;;5035840;28;20222;-65
2023/01/03 14:45:40;;;;;;;2.22;1.55;;;15.70;91.60;;;;;;5035207;28;20198;-66
2023/01/03 14:48:29;;;;;;;1.63;1.52;;;15.70;91.70;;;;;;5035031;28;20693;-66
2023/01/03 14:51:18;;;;;;;1.33;1.17;;;15.70;91.90;;;;;;5035245;28;20225;-66
2023/01/03 14:54:06;;;;;;;1.73;1.63;;;15.70;91.60;;;;;;5034476;28;20553;-66
2023/01/03 14:56:55;;;;;;;1.55;1.38;;;15.70;91.60;;;;;;5036311;28;20237;-66
2023/01/03 14:59:43;;;;;;;1.92;1.70;;;15.70;91.60;;;;;;5033937;28;20256;-66
2023/01/03 15:02:37;;;;;;;1.47;1.37;;;15.70;91.60;;;;;;5036056;28;20580;-66
2023/01/03 15:05:29;;;;;;;1.63;1.27;;;15.70;91.80;;;;;;5035784;28;20203;-66
2023/01/03 15:08:24;;;;;;;1.60;1.50;;;15.70;91.80;;;;;;5034693;28;20224;-66
2023/01/03 15:11:14;;;;;;;1.70;1.60;;;15.70;91.60;;;;;;5044811;28;20218;-66
2023/01/03 15:14:04;;;;;;;2.53;1.40;;;15.50;91.60;;;;;;5054383;28;20198;-66
2023/01/03 15:17:02;;;;;;;1.60;1.50;;;15.70;91.80;;;;;;5053178;28;20198;-66
2023/01/03 15:19:53;;;;;;;1.73;1.50;;;15.70;91.50;;;;;;5034968;28;20301;-65
2023/01/03 15:22:41;;;;;;;2.85;1.40;;;15.70;91.50;;;;;;5035656;28;20202;-66
2023/01/03 15:25:35;;;;;;;1.60;1.50;;;15.70;91.70;;;;;;5034675;28;20682;-66
2023/01/03 15:28:26;;;;;;;2.00;1.30;;;15.70;91.60;;;;;;5034415;28;20269;-65
2023/01/03 15:31:27;;;;;;;1.92;1.83;;;15.70;91.70;;;;;;5035007;28;20722;-65
2023/01/03 15:34:17;;;;;;;2.78;1.40;;;15.70;91.50;;;;;;5034293;28;20198;-65
2023/01/03 15:37:14;;;;;;;1.95;1.77;;;15.60;91.60;;;;;;5034848;28;20702;-65
2023/01/03 15:40:04;;;;;;;3.97;1.43;;;15.60;91.30;;;;;;5033365;28;20229;-65
2023/01/03 15:46:03;;;;;;;3.33;2.10;;;15.60;91.50;;;;;;5034341;28;20201;-66
2023/01/03 15:48:55;;;;;;;1.20;1.10;;;15.60;91.30;;;;;;5034306;28;20240;-66
2023/01/03 15:51:43;;;;;;;1.98;1.55;;;15.60;91.50;;;;;;5034377;28;20632;-66
2023/01/03 15:54:31;;;;;;;2.15;1.95;;;15.60;91.30;;;;;;5033264;28;20277;-66
2023/01/03 15:57:21;;;;;;;2.20;1.58;;;15.60;91.40;;;;;;5034332;28;20223;-66
2023/01/03 16:00:17;;;;;;;2.33;1.35;;;15.60;91.50;;;;;;5033683;28;20249;-65
2023/01/03 16:03:05;;;;;;;1.75;1.52;;;15.60;91.60;;;;;;5034105;28;20276;-66
2023/01/03 16:05:54;;;;;;;2.17;1.50;;;15.60;91.30;;;;;;5034844;28;20679;-66
2023/01/03 16:08:42;;;;;;;3.33;1.73;;;15.60;91.50;;;;;;5034780;28;20212;-65
2023/01/03 16:11:30;;;;;;;2.55;1.45;;;15.60;91.30;;;;;;5033682;28;20369;-65